Time,TemperatureF,DewpointF,PressureIn,WindDirection,WindDirectionDegrees,WindSpeedMPH,WindSpeedGustMPH,Humidity,HourlyPrecipIn,Conditions,Clouds,dailyrainin,SoftwareType,DateUTC
2013-02-07 00:02:00,46.9,41.1,29.77,SSE,167,0.0,1.0,80,0.01,,---,0.00,VWS V14.01,2013-02-07 08:02:00,
2013-02-07 00:07:00,46.7,40.9,29.77,SSE,152,0.0,4.0,80,0.01,,---,0.00,VWS V14.01,2013-02-07 08:07:00,
2013-02-07 00:12:00,46.7,41.2,29.78,South,173,0.0,4.0,81,0.01,,---,0.00,VWS V14.01,2013-02-07 08:12:00,
2013-02-07 00:17:00,46.4,41.2,29.78,SW,236,0.0,4.0,82,0.01,,---,0.00,VWS V14.01,2013-02-07 08:17:00,
2013-02-07 00:22:00,46.2,41.0,29.78,South,183,3.0,4.0,82,0.01,,---,0.00,VWS V14.01,2013-02-07 08:22:00,
2013-02-07 00:27:00,46.2,41.0,29.78,East,99,1.0,5.0,82,0.02,,---,0.01,VWS V14.01,2013-02-07 08:27:00,
2013-02-07 00:32:00,46.3,40.8,29.78,ESE,109,3.0,12.0,81,0.02,,---,0.01,VWS V14.01,2013-02-07 08:32:00,
2013-02-07 00:38:00,46.4,40.9,29.78,ESE,103,2.0,14.0,81,0.02,,---,0.01,VWS V14.01,2013-02-07 08:38:00,
2013-02-07 00:43:00,46.3,41.1,29.78,ESE,103,2.0,14.0,82,0.02,,---,0.01,VWS V14.01,2013-02-07 08:43:00,
2013-02-07 00:48:00,46.1,41.2,29.78,SSE,165,0.0,14.0,83,0.02,,---,0.01,VWS V14.01,2013-02-07 08:48:00,
2013-02-07 00:53:00,46.0,41.4,29.79,SSE,149,0.0,14.0,84,0.03,,---,0.02,VWS V14.01,2013-02-07 08:53:00,
2013-02-07 00:58:00,45.8,41.5,29.81,West,277,3.0,14.0,85,0.04,,---,0.03,VWS V14.01,2013-02-07 08:58:00,
2013-02-07 01:03:00,45.5,41.9,29.81,SW,225,0.0,6.0,87,0.05,,---,0.05,VWS V14.01,2013-02-07 09:03:00,
2013-02-07 01:08:00,45.1,41.8,29.82,SSE,167,1.0,17.0,88,0.05,,---,0.05,VWS V14.01,2013-02-07 09:08:00,
2013-02-07 01:13:00,44.5,41.2,29.82,South,191,7.0,19.0,88,0.06,,---,0.06,VWS V14.01,2013-02-07 09:13:00,
2013-02-07 01:18:00,43.9,40.9,29.82,SW,217,9.0,22.0,89,0.06,,---,0.06,VWS V14.01,2013-02-07 09:18:00,
2013-02-07 01:23:00,43.5,40.8,29.82,SSW,209,0.0,22.0,90,0.06,,---,0.06,VWS V14.01,2013-02-07 09:23:00,
2013-02-07 01:28:00,43.3,40.6,29.82,South,186,1.0,22.0,90,0.07,,---,0.07,VWS V14.01,2013-02-07 09:28:00,
2013-02-07 01:33:00,43.1,40.7,29.82,SSE,165,2.0,4.0,91,0.06,,---,0.07,VWS V14.01,2013-02-07 09:33:00,
2013-02-07 01:38:00,42.9,40.5,29.82,SSE,163,3.0,10.0,91,0.07,,---,0.08,VWS V14.01,2013-02-07 09:38:00,
2013-02-07 01:44:00,42.8,40.4,29.82,SE,146,1.0,10.0,91,0.07,,---,0.08,VWS V14.01,2013-02-07 09:44:00,
2013-02-07 01:49:00,42.8,40.4,29.82,SW,226,0.0,10.0,91,0.08,,---,0.09,VWS V14.01,2013-02-07 09:49:00,
2013-02-07 01:54:00,42.7,40.3,29.82,SSE,150,2.0,11.0,91,0.08,,---,0.09,VWS V14.01,2013-02-07 09:54:00,
2013-02-07 01:59:00,42.9,40.2,29.83,SSE,155,4.0,11.0,90,0.08,,---,0.09,VWS V14.01,2013-02-07 09:59:00,
2013-02-07 02:04:00,43.0,40.3,29.83,South,186,0.0,7.0,90,0.05,,---,0.09,VWS V14.01,2013-02-07 10:04:00,
2013-02-07 02:09:00,43.1,40.4,29.84,SSE,156,1.0,7.0,90,0.05,,---,0.09,VWS V14.01,2013-02-07 10:09:00,
2013-02-07 02:14:00,43.3,40.6,29.84,SSE,155,4.0,13.0,90,0.05,,---,0.09,VWS V14.01,2013-02-07 10:14:00,
2013-02-07 02:19:00,43.4,40.7,29.84,SSE,149,2.0,13.0,90,0.05,,---,0.09,VWS V14.01,2013-02-07 10:19:00,
2013-02-07 02:24:00,43.4,40.7,29.85,SSE,147,0.0,13.0,90,0.05,,---,0.09,VWS V14.01,2013-02-07 10:24:00,
2013-02-07 02:29:00,43.5,40.8,29.85,SSE,156,3.0,13.0,90,0.05,,---,0.09,VWS V14.01,2013-02-07 10:29:00,
2013-02-07 02:34:00,43.6,40.6,29.85,SSE,160,4.0,6.0,89,0.02,,---,0.09,VWS V14.01,2013-02-07 10:34:00,
2013-02-07 02:39:00,43.6,40.6,29.85,ESE,119,2.0,6.0,89,0.02,,---,0.09,VWS V14.01,2013-02-07 10:39:00,
2013-02-07 02:45:00,43.6,40.6,29.85,SSE,155,0.0,10.0,89,0.02,,---,0.09,VWS V14.01,2013-02-07 10:45:00,
2013-02-07 02:50:00,43.6,40.6,29.86,SE,138,2.0,10.0,89,0.02,,---,0.09,VWS V14.01,2013-02-07 10:50:00,
2013-02-07 02:55:00,43.7,40.4,29.86,SE,128,3.0,13.0,88,0.02,,---,0.09,VWS V14.01,2013-02-07 10:55:00,
2013-02-07 03:00:00,43.7,40.1,29.86,SE,136,6.0,13.0,87,0.02,,---,0.09,VWS V14.01,2013-02-07 11:00:00,
2013-02-07 03:05:00,43.6,39.7,29.85,South,173,3.0,14.0,86,0.00,,---,0.09,VWS V14.01,2013-02-07 11:05:00,
2013-02-07 03:10:00,43.6,39.7,29.85,South,188,4.0,14.0,86,0.00,,---,0.09,VWS V14.01,2013-02-07 11:10:00,
2013-02-07 03:15:00,43.4,39.8,29.86,South,191,0.0,14.0,87,0.00,,---,0.09,VWS V14.01,2013-02-07 11:15:00,
2013-02-07 03:20:00,43.4,39.5,29.86,South,186,3.0,14.0,86,0.00,,---,0.09,VWS V14.01,2013-02-07 11:20:00,
2013-02-07 03:25:00,43.4,39.5,29.86,SSE,150,1.0,14.0,86,0.00,,---,0.09,VWS V14.01,2013-02-07 11:25:00,
2013-02-07 03:30:00,43.5,39.6,29.86,South,179,6.0,14.0,86,0.00,,---,0.09,VWS V14.01,2013-02-07 11:30:00,
2013-02-07 03:35:00,43.5,39.3,29.86,SE,133,3.0,12.0,85,0.00,,---,0.09,VWS V14.01,2013-02-07 11:35:00,
2013-02-07 03:40:00,43.5,39.3,29.86,SE,139,0.0,12.0,85,0.00,,---,0.09,VWS V14.01,2013-02-07 11:40:00,
2013-02-07 03:45:00,43.4,38.9,29.86,SSE,148,1.0,15.0,84,0.00,,---,0.09,VWS V14.01,2013-02-07 11:45:00,
2013-02-07 03:50:00,43.4,38.9,29.86,South,186,0.0,15.0,84,0.00,,---,0.09,VWS V14.01,2013-02-07 11:50:00,
2013-02-07 03:56:00,43.3,39.1,29.87,WSW,245,2.0,15.0,85,0.00,,---,0.09,VWS V14.01,2013-02-07 11:56:00,
2013-02-07 04:01:00,43.4,38.9,29.87,SSE,148,0.0,3.0,84,0.00,,---,0.09,VWS V14.01,2013-02-07 12:01:00,
2013-02-07 04:06:00,43.3,38.8,29.87,SE,132,1.0,11.0,84,0.00,,---,0.09,VWS V14.01,2013-02-07 12:06:00,
2013-02-07 04:11:00,43.2,38.7,29.88,East,100,4.0,11.0,84,0.00,,---,0.09,VWS V14.01,2013-02-07 12:11:00,
2013-02-07 04:16:00,43.2,38.4,29.88,WNW,303,3.0,14.0,83,0.00,,---,0.09,VWS V14.01,2013-02-07 12:16:00,
2013-02-07 04:21:00,43.3,38.5,29.88,East,98,4.0,14.0,83,0.00,,---,0.09,VWS V14.01,2013-02-07 12:21:00,
2013-02-07 04:26:00,43.3,38.5,29.89,SSW,212,10.0,15.0,83,0.00,,---,0.09,VWS V14.01,2013-02-07 12:26:00,
2013-02-07 04:31:00,43.3,38.5,29.89,SE,142,2.0,3.0,83,0.00,,---,0.09,VWS V14.01,2013-02-07 12:31:00,
2013-02-07 04:36:00,43.2,38.4,29.89,SSE,150,2.0,15.0,83,0.00,,---,0.09,VWS V14.01,2013-02-07 12:36:00,
2013-02-07 04:41:00,43.3,38.5,29.90,SE,132,0.0,16.0,83,0.00,,---,0.09,VWS V14.01,2013-02-07 12:41:00,
2013-02-07 04:46:00,43.3,38.2,29.90,SSE,149,0.0,16.0,82,0.00,,---,0.09,VWS V14.01,2013-02-07 12:46:00,
2013-02-07 04:52:00,43.4,38.0,29.89,SSE,154,4.0,16.0,81,0.00,,---,0.09,VWS V14.01,2013-02-07 12:52:00,
2013-02-07 04:57:00,43.4,38.0,29.90,SE,145,4.0,16.0,81,0.00,,---,0.09,VWS V14.01,2013-02-07 12:57:00,
2013-02-07 05:02:00,43.4,38.0,29.90,South,176,9.0,13.0,81,0.00,,---,0.09,VWS V14.01,2013-02-07 13:02:00,
2013-02-07 05:07:00,43.3,38.2,29.90,WSW,249,9.0,13.0,82,0.00,,---,0.09,VWS V14.01,2013-02-07 13:07:00,
2013-02-07 05:12:00,43.3,38.2,29.90,ESE,115,3.0,13.0,82,0.00,,---,0.09,VWS V14.01,2013-02-07 13:12:00,
2013-02-07 05:17:00,43.3,38.2,29.91,South,178,1.0,14.0,82,0.00,,---,0.09,VWS V14.01,2013-02-07 13:17:00,
2013-02-07 05:22:00,43.2,38.4,29.91,SE,144,0.0,14.0,83,0.00,,---,0.09,VWS V14.01,2013-02-07 13:22:00,
2013-02-07 05:27:00,43.1,38.0,29.91,SSW,202,1.0,14.0,82,0.00,,---,0.09,VWS V14.01,2013-02-07 13:27:00,
2013-02-07 05:32:00,43.1,38.3,29.91,SSE,154,3.0,7.0,83,0.00,,---,0.09,VWS V14.01,2013-02-07 13:32:00,
2013-02-07 05:37:00,43.1,38.3,29.91,SSE,168,1.0,11.0,83,0.00,,---,0.09,VWS V14.01,2013-02-07 13:37:00,
2013-02-07 05:42:00,43.1,38.3,29.91,WSW,253,0.0,11.0,83,0.00,,---,0.09,VWS V14.01,2013-02-07 13:42:00,
2013-02-07 05:47:00,43.0,38.2,29.91,South,171,1.0,11.0,83,0.00,,---,0.09,VWS V14.01,2013-02-07 13:47:00,
2013-02-07 05:52:00,42.9,38.1,29.91,SW,222,0.0,11.0,83,0.00,,---,0.09,VWS V14.01,2013-02-07 13:52:00,
2013-02-07 05:57:00,42.7,38.2,29.92,SSW,199,1.0,11.0,84,0.00,,---,0.09,VWS V14.01,2013-02-07 13:57:00,
2013-02-07 06:02:00,42.5,38.0,29.92,SW,215,3.0,4.0,84,0.00,,---,0.09,VWS V14.01,2013-02-07 14:02:00,
2013-02-07 06:07:00,42.4,37.9,29.92,WSW,237,1.0,10.0,84,0.00,,---,0.09,VWS V14.01,2013-02-07 14:07:00,
2013-02-07 06:12:00,42.3,37.8,29.92,SSE,148,0.0,10.0,84,0.00,,---,0.09,VWS V14.01,2013-02-07 14:12:00,
2013-02-07 06:17:00,42.2,38.0,29.92,SSE,167,0.0,10.0,85,0.00,,---,0.09,VWS V14.01,2013-02-07 14:17:00,
2013-02-07 06:22:00,42.3,38.4,29.92,SSE,166,0.0,10.0,86,0.00,,---,0.09,VWS V14.01,2013-02-07 14:22:00,
2013-02-07 06:27:00,42.4,38.8,29.93,SSE,150,3.0,10.0,87,0.00,,---,0.09,VWS V14.01,2013-02-07 14:27:00,
2013-02-07 06:32:00,42.4,38.2,29.93,SE,142,2.0,6.0,85,0.00,,---,0.09,VWS V14.01,2013-02-07 14:32:00,
2013-02-07 06:37:00,42.3,37.8,29.93,SSE,149,2.0,12.0,84,0.00,,---,0.09,VWS V14.01,2013-02-07 14:37:00,
2013-02-07 06:42:00,42.1,37.6,29.93,SE,139,0.0,12.0,84,0.00,,---,0.09,VWS V14.01,2013-02-07 14:42:00,
2013-02-07 06:47:00,42.1,37.9,29.93,South,173,2.0,12.0,85,0.00,,---,0.09,VWS V14.01,2013-02-07 14:47:00,
2013-02-07 06:53:00,42.0,37.8,29.93,SSE,147,3.0,12.0,85,0.00,,---,0.09,VWS V14.01,2013-02-07 14:53:00,
2013-02-07 06:57:00,42.0,37.8,29.93,South,179,2.0,13.0,85,0.00,,---,0.09,VWS V14.01,2013-02-07 14:57:00,
2013-02-07 07:03:00,41.9,38.0,29.93,SE,142,0.0,10.0,86,0.00,,---,0.09,VWS V14.01,2013-02-07 15:03:00,
2013-02-07 07:08:00,41.8,37.6,29.93,South,177,1.0,11.0,85,0.00,,---,0.09,VWS V14.01,2013-02-07 15:08:00,
2013-02-07 07:13:00,41.8,37.9,29.93,South,188,0.0,11.0,86,0.00,,---,0.09,VWS V14.01,2013-02-07 15:13:00,
2013-02-07 07:18:00,41.8,37.9,29.93,SE,146,2.0,13.0,86,0.00,,---,0.09,VWS V14.01,2013-02-07 15:18:00,
2013-02-07 07:23:00,41.9,38.0,29.94,South,180,1.0,13.0,86,0.00,,---,0.09,VWS V14.01,2013-02-07 15:23:00,
2013-02-07 07:28:00,41.8,37.9,29.94,South,172,3.0,13.0,86,0.00,,---,0.09,VWS V14.01,2013-02-07 15:28:00,
2013-02-07 07:33:00,41.9,38.0,29.95,SSW,198,0.0,5.0,86,0.00,,---,0.09,VWS V14.01,2013-02-07 15:33:00,
2013-02-07 07:38:00,41.8,37.9,29.95,SSE,157,0.0,5.0,86,0.00,,---,0.09,VWS V14.01,2013-02-07 15:38:00,
2013-02-07 07:43:00,41.7,37.8,29.95,SSE,163,0.0,6.0,86,0.00,,---,0.09,VWS V14.01,2013-02-07 15:43:00,
2013-02-07 07:48:00,41.7,37.8,29.95,South,171,0.0,6.0,86,0.00,,---,0.09,VWS V14.01,2013-02-07 15:48:00,
2013-02-07 07:53:00,41.6,38.0,29.95,SSW,208,0.0,6.0,87,0.00,,---,0.09,VWS V14.01,2013-02-07 15:53:00,
2013-02-07 07:58:00,41.7,38.1,29.96,SSE,167,0.0,6.0,87,0.00,,---,0.09,VWS V14.01,2013-02-07 15:58:00,
2013-02-07 08:03:00,41.8,38.2,29.96,SSE,161,0.0,6.0,87,0.00,,---,0.09,VWS V14.01,2013-02-07 16:03:00,
2013-02-07 08:09:00,41.8,38.2,29.96,SE,124,2.0,6.0,87,0.00,,---,0.09,VWS V14.01,2013-02-07 16:09:00,
2013-02-07 08:14:00,41.8,38.2,29.96,WSW,237,1.0,6.0,87,0.00,,---,0.09,VWS V14.01,2013-02-07 16:14:00,
2013-02-07 08:19:00,41.9,38.3,29.97,SE,146,0.0,6.0,87,0.00,,---,0.09,VWS V14.01,2013-02-07 16:19:00,
2013-02-07 08:24:00,42.0,38.7,29.98,SW,234,0.0,6.0,88,0.00,,---,0.09,VWS V14.01,2013-02-07 16:24:00,
2013-02-07 08:29:00,42.0,38.4,29.98,ESE,120,2.0,7.0,87,0.00,,---,0.09,VWS V14.01,2013-02-07 16:29:00,
2013-02-07 08:34:00,42.1,38.2,29.97,SSE,153,9.0,13.0,86,0.00,,---,0.09,VWS V14.01,2013-02-07 16:34:00,
2013-02-07 08:39:00,42.1,38.2,29.98,SSE,163,0.0,13.0,86,0.00,,---,0.09,VWS V14.01,2013-02-07 16:39:00,
2013-02-07 08:44:00,42.2,38.3,29.98,SSE,148,1.0,13.0,86,0.00,,---,0.09,VWS V14.01,2013-02-07 16:44:00,
2013-02-07 08:49:00,42.3,38.4,29.98,SSE,154,3.0,13.0,86,0.00,,---,0.09,VWS V14.01,2013-02-07 16:49:00,
2013-02-07 08:54:00,42.5,38.6,29.99,South,171,2.0,13.0,86,0.00,,---,0.09,VWS V14.01,2013-02-07 16:54:00,
2013-02-07 08:59:00,42.7,38.8,29.99,NE,36,3.0,13.0,86,0.00,,---,0.09,VWS V14.01,2013-02-07 16:59:00,
2013-02-07 09:04:00,42.8,38.9,29.99,SE,142,2.0,2.0,86,0.00,,---,0.09,VWS V14.01,2013-02-07 17:04:00,
2013-02-07 09:09:00,42.9,38.7,29.99,SSE,155,0.0,4.0,85,0.00,,---,0.09,VWS V14.01,2013-02-07 17:09:00,
2013-02-07 09:14:00,42.8,38.6,29.99,SW,227,0.0,4.0,85,0.00,,---,0.09,VWS V14.01,2013-02-07 17:14:00,
2013-02-07 09:19:00,42.8,38.6,29.99,South,180,1.0,5.0,85,0.00,,---,0.09,VWS V14.01,2013-02-07 17:19:00,
2013-02-07 09:25:00,42.8,38.6,29.99,ESE,109,5.0,6.0,85,0.00,,---,0.09,VWS V14.01,2013-02-07 17:25:00,
2013-02-07 09:30:00,42.9,38.7,30.00,SW,232,2.0,9.0,85,0.00,,---,0.09,VWS V14.01,2013-02-07 17:30:00,
2013-02-07 09:35:00,43.0,38.8,30.00,SSE,163,0.0,6.0,85,0.00,,---,0.09,VWS V14.01,2013-02-07 17:35:00,
2013-02-07 09:40:00,43.6,39.4,30.00,South,185,2.0,6.0,85,0.00,,---,0.09,VWS V14.01,2013-02-07 17:40:00,
2013-02-07 09:45:00,44.6,40.1,29.99,SE,130,9.0,9.0,84,0.00,,---,0.09,VWS V14.01,2013-02-07 17:45:00,
2013-02-07 09:50:00,45.0,39.8,29.99,SE,140,2.0,9.0,82,0.00,,---,0.09,VWS V14.01,2013-02-07 17:50:00,
2013-02-07 09:55:00,45.1,39.3,29.99,SSE,156,1.0,10.0,80,0.00,,---,0.09,VWS V14.01,2013-02-07 17:55:00,
2013-02-07 10:00:00,45.1,39.3,29.99,South,171,2.0,10.0,80,0.00,,---,0.09,VWS V14.01,2013-02-07 18:00:00,
2013-02-07 10:05:00,45.2,39.7,29.99,East,86,2.0,6.0,81,0.00,,---,0.09,VWS V14.01,2013-02-07 18:05:00,
2013-02-07 10:10:00,45.5,39.7,29.99,SSE,161,0.0,6.0,80,0.00,,---,0.09,VWS V14.01,2013-02-07 18:10:00,
2013-02-07 10:15:00,45.7,39.6,30.00,SSE,151,3.0,11.0,79,0.00,,---,0.09,VWS V14.01,2013-02-07 18:15:00,
2013-02-07 10:20:00,45.5,39.7,30.00,SSE,160,1.0,11.0,80,0.00,,---,0.09,VWS V14.01,2013-02-07 18:20:00,
2013-02-07 10:25:00,45.7,39.6,30.00,SE,144,0.0,11.0,79,0.00,,---,0.09,VWS V14.01,2013-02-07 18:25:00,
2013-02-07 10:30:00,46.3,40.2,30.01,South,180,2.0,2.0,79,0.00,,---,0.09,VWS V14.01,2013-02-07 18:30:00,
2013-02-07 10:36:00,46.7,40.5,30.01,SE,142,0.0,6.0,79,0.00,,---,0.09,VWS V14.01,2013-02-07 18:36:00,
2013-02-07 10:41:00,47.2,41.0,30.01,ESE,123,1.0,6.0,79,0.00,,---,0.09,VWS V14.01,2013-02-07 18:41:00,
2013-02-07 10:46:00,47.3,40.1,30.01,South,190,1.0,9.0,76,0.00,,---,0.09,VWS V14.01,2013-02-07 18:46:00,
2013-02-07 10:51:00,47.4,40.2,30.01,SSE,165,2.0,9.0,76,0.00,,---,0.09,VWS V14.01,2013-02-07 18:51:00,
2013-02-07 10:56:00,47.4,39.9,30.01,South,189,2.0,10.0,75,0.00,,---,0.09,VWS V14.01,2013-02-07 18:56:00,
2013-02-07 11:01:00,46.9,39.4,30.01,SW,230,3.0,3.0,75,0.00,,---,0.09,VWS V14.01,2013-02-07 19:01:00,
2013-02-07 11:06:00,47.0,39.5,30.01,South,186,2.0,10.0,75,0.00,,---,0.09,VWS V14.01,2013-02-07 19:06:00,
2013-02-07 11:11:00,47.2,40.0,30.01,SSW,202,0.0,10.0,76,0.00,,---,0.09,VWS V14.01,2013-02-07 19:11:00,
2013-02-07 11:16:00,47.9,40.4,30.01,SSE,155,3.0,10.0,75,0.00,,---,0.09,VWS V14.01,2013-02-07 19:16:00,
2013-02-07 11:21:00,48.1,39.9,30.01,SSE,150,2.0,11.0,73,0.00,,---,0.09,VWS V14.01,2013-02-07 19:21:00,
2013-02-07 11:26:00,47.8,39.6,30.01,South,185,0.0,11.0,73,0.00,,---,0.09,VWS V14.01,2013-02-07 19:26:00,
2013-02-07 11:31:00,48.1,39.9,30.01,SSW,198,1.0,9.0,73,0.00,,---,0.09,VWS V14.01,2013-02-07 19:31:00,
2013-02-07 11:36:00,48.2,39.6,30.01,WSW,241,2.0,11.0,72,0.00,,---,0.09,VWS V14.01,2013-02-07 19:36:00,
2013-02-07 11:41:00,47.7,39.1,30.01,South,186,1.0,11.0,72,0.00,,---,0.09,VWS V14.01,2013-02-07 19:41:00,
2013-02-07 11:46:00,47.7,39.5,30.01,SW,227,9.0,12.0,73,0.00,,---,0.09,VWS V14.01,2013-02-07 19:46:00,
2013-02-07 11:51:00,47.8,39.2,30.01,SW,225,0.0,12.0,72,0.00,,---,0.09,VWS V14.01,2013-02-07 19:51:00,
2013-02-07 11:57:00,48.0,38.3,30.01,SW,215,0.0,12.0,69,0.00,,---,0.09,VWS V14.01,2013-02-07 19:57:00,
2013-02-07 12:02:00,48.0,38.3,30.01,SE,146,0.0,2.0,69,0.00,,---,0.09,VWS V14.01,2013-02-07 20:02:00,
2013-02-07 12:07:00,48.6,39.3,30.01,SW,216,1.0,4.0,70,0.00,,---,0.09,VWS V14.01,2013-02-07 20:07:00,
2013-02-07 12:12:00,49.1,39.0,30.01,SW,225,9.0,9.0,68,0.00,,---,0.09,VWS V14.01,2013-02-07 20:12:00,
2013-02-07 12:17:00,49.0,39.3,30.01,SSW,203,0.0,9.0,69,0.00,,---,0.09,VWS V14.01,2013-02-07 20:17:00,
2013-02-07 12:22:00,48.8,38.3,30.01,SSW,192,0.0,9.0,67,0.00,,---,0.09,VWS V14.01,2013-02-07 20:22:00,
2013-02-07 12:27:00,49.0,38.9,30.01,SE,141,0.0,9.0,68,0.00,,---,0.09,VWS V14.01,2013-02-07 20:27:00,
2013-02-07 12:32:00,49.2,39.1,30.01,SW,227,7.0,7.0,68,0.00,,---,0.09,VWS V14.01,2013-02-07 20:32:00,
2013-02-07 12:37:00,48.9,39.2,30.01,WSW,242,2.0,11.0,69,0.00,,---,0.09,VWS V14.01,2013-02-07 20:37:00,
2013-02-07 12:42:00,49.2,39.5,30.00,SSW,209,0.0,11.0,69,0.00,,---,0.09,VWS V14.01,2013-02-07 20:42:00,
2013-02-07 12:47:00,49.3,39.2,30.01,South,178,3.0,11.0,68,0.00,,---,0.09,VWS V14.01,2013-02-07 20:47:00,
2013-02-07 12:52:00,49.5,39.4,30.00,SW,232,3.0,11.0,68,0.00,,---,0.09,VWS V14.01,2013-02-07 20:52:00,
2013-02-07 12:57:00,49.2,38.7,30.00,SW,218,8.0,12.0,67,0.00,,---,0.09,VWS V14.01,2013-02-07 20:57:00,
2013-02-07 13:02:00,49.1,38.6,30.00,SSW,209,1.0,4.0,67,0.00,,---,0.09,VWS V14.01,2013-02-07 21:02:00,
2013-02-07 13:07:00,49.2,38.7,30.01,SW,224,1.0,10.0,67,0.00,,---,0.09,VWS V14.01,2013-02-07 21:07:00,
2013-02-07 13:12:00,49.4,38.9,30.01,South,185,2.0,10.0,67,0.00,,---,0.09,VWS V14.01,2013-02-07 21:12:00,
2013-02-07 13:17:00,49.5,38.6,30.01,SSW,200,0.0,10.0,66,0.00,,---,0.09,VWS V14.01,2013-02-07 21:17:00,
2013-02-07 13:22:00,49.4,38.1,30.01,West,268,3.0,10.0,65,0.00,,---,0.09,VWS V14.01,2013-02-07 21:22:00,
2013-02-07 13:28:00,49.8,39.3,30.01,SSE,164,3.0,10.0,67,0.00,,---,0.09,VWS V14.01,2013-02-07 21:28:00,
2013-02-07 13:33:00,49.9,38.6,30.01,SW,235,0.0,7.0,65,0.00,,---,0.09,VWS V14.01,2013-02-07 21:33:00,
2013-02-07 13:38:00,49.6,38.3,30.01,SW,215,0.0,7.0,65,0.00,,---,0.09,VWS V14.01,2013-02-07 21:38:00,
2013-02-07 13:43:00,49.4,37.8,30.01,SW,217,6.0,9.0,64,0.00,,---,0.09,VWS V14.01,2013-02-07 21:43:00,
2013-02-07 13:48:00,49.2,38.3,30.01,SW,223,2.0,9.0,66,0.00,,---,0.09,VWS V14.01,2013-02-07 21:48:00,
2013-02-07 13:53:00,48.9,37.7,30.01,WSW,251,4.0,9.0,65,0.00,,---,0.09,VWS V14.01,2013-02-07 21:53:00,
2013-02-07 13:58:00,48.7,38.6,30.01,SSE,166,0.0,10.0,68,0.00,,---,0.09,VWS V14.01,2013-02-07 21:58:00,
2013-02-07 14:03:00,49.2,38.7,30.01,West,267,2.0,4.0,67,0.00,,---,0.09,VWS V14.01,2013-02-07 22:03:00,
2013-02-07 14:08:00,49.1,37.9,30.01,SW,227,2.0,10.0,65,0.00,,---,0.09,VWS V14.01,2013-02-07 22:08:00,
2013-02-07 14:13:00,49.1,38.2,30.01,SW,217,1.0,10.0,66,0.00,,---,0.09,VWS V14.01,2013-02-07 22:13:00,
2013-02-07 14:18:00,49.1,37.5,30.01,SW,229,0.0,10.0,64,0.00,,---,0.09,VWS V14.01,2013-02-07 22:18:00,
2013-02-07 14:23:00,49.1,37.1,30.01,SSW,205,1.0,10.0,63,0.00,,---,0.09,VWS V14.01,2013-02-07 22:23:00,
2013-02-07 14:28:00,49.1,37.9,30.01,SW,226,0.0,10.0,65,0.00,,---,0.09,VWS V14.01,2013-02-07 22:28:00,
2013-02-07 14:33:00,49.4,37.8,30.01,SSW,205,1.0,4.0,64,0.00,,---,0.09,VWS V14.01,2013-02-07 22:33:00,
2013-02-07 14:38:00,49.4,37.8,30.01,WSW,243,0.0,7.0,64,0.00,,---,0.09,VWS V14.01,2013-02-07 22:38:00,
2013-02-07 14:44:00,49.7,38.0,30.01,SW,227,0.0,7.0,64,0.00,,---,0.09,VWS V14.01,2013-02-07 22:44:00,
2013-02-07 14:49:00,49.9,38.2,30.01,SW,219,1.0,7.0,64,0.00,,---,0.09,VWS V14.01,2013-02-07 22:49:00,
2013-02-07 14:54:00,49.8,37.7,30.01,SW,225,0.0,7.0,63,0.00,,---,0.09,VWS V14.01,2013-02-07 22:54:00,
2013-02-07 14:59:00,49.7,37.6,30.01,West,261,0.0,7.0,63,0.00,,---,0.09,VWS V14.01,2013-02-07 22:59:00,
2013-02-07 15:04:00,49.6,37.9,30.02,SW,217,1.0,5.0,64,0.00,,---,0.09,VWS V14.01,2013-02-07 23:04:00,
2013-02-07 15:09:00,49.5,38.2,30.01,SSE,155,2.0,5.0,65,0.00,,---,0.09,VWS V14.01,2013-02-07 23:09:00,
2013-02-07 15:14:00,49.4,38.1,30.01,SSE,155,0.0,5.0,65,0.00,,---,0.09,VWS V14.01,2013-02-07 23:14:00,
2013-02-07 15:19:00,49.2,38.0,30.01,SSE,155,1.0,5.0,65,0.00,,---,0.09,VWS V14.01,2013-02-07 23:19:00,
2013-02-07 15:24:00,49.6,38.3,30.02,SSW,205,0.0,5.0,65,0.00,,---,0.09,VWS V14.01,2013-02-07 23:24:00,
2013-02-07 15:29:00,49.9,38.2,30.01,SSW,205,0.0,5.0,64,0.00,,---,0.09,VWS V14.01,2013-02-07 23:29:00,
2013-02-07 15:34:00,50.2,38.5,30.02,SSW,205,0.0,2.0,64,0.00,,---,0.09,VWS V14.01,2013-02-07 23:34:00,
2013-02-07 15:39:00,50.0,37.5,30.02,SSW,205,0.0,2.0,62,0.00,,---,0.09,VWS V14.01,2013-02-07 23:39:00,
2013-02-07 15:44:00,49.8,37.7,30.02,WSW,256,4.0,5.0,63,0.00,,---,0.09,VWS V14.01,2013-02-07 23:44:00,
2013-02-07 15:49:00,49.7,38.0,30.02,West,263,0.0,5.0,64,0.00,,---,0.09,VWS V14.01,2013-02-07 23:49:00,
2013-02-07 15:54:00,49.3,37.7,30.02,West,263,0.0,5.0,64,0.00,,---,0.09,VWS V14.01,2013-02-07 23:54:00,
2013-02-07 15:59:00,49.1,37.5,30.02,West,263,0.0,5.0,64,0.00,,---,0.09,VWS V14.01,2013-02-07 23:59:00,
2013-02-07 16:04:00,49.3,37.2,30.02,West,263,1.0,1.0,63,0.00,,---,0.09,VWS V14.01,2013-02-08 00:04:00,
2013-02-07 16:10:00,49.2,37.2,30.02,West,263,0.0,1.0,63,0.00,,---,0.09,VWS V14.01,2013-02-08 00:10:00,
2013-02-07 16:15:00,49.1,37.5,30.03,West,269,5.0,5.0,64,0.00,,---,0.09,VWS V14.01,2013-02-08 00:15:00,
2013-02-07 16:20:00,49.0,37.4,30.03,NW,311,0.0,6.0,64,0.00,,---,0.09,VWS V14.01,2013-02-08 00:20:00,
2013-02-07 16:25:00,48.7,37.1,30.03,WNW,286,1.0,6.0,64,0.00,,---,0.09,VWS V14.01,2013-02-08 00:25:00,
2013-02-07 16:30:00,48.5,36.9,30.03,WNW,286,4.0,6.0,64,0.00,,---,0.09,VWS V14.01,2013-02-08 00:30:00,
2013-02-07 16:35:00,48.1,36.5,30.03,West,279,0.0,5.0,64,0.00,,---,0.09,VWS V14.01,2013-02-08 00:35:00,
2013-02-07 16:40:00,47.7,35.7,30.04,West,279,2.0,5.0,63,0.00,,---,0.09,VWS V14.01,2013-02-08 00:40:00,
2013-02-07 16:45:00,47.6,36.4,30.04,WNW,297,1.0,5.0,65,0.00,,---,0.09,VWS V14.01,2013-02-08 00:45:00,
2013-02-07 16:50:00,47.3,36.5,30.04,WNW,295,4.0,5.0,66,0.00,,---,0.09,VWS V14.01,2013-02-08 00:50:00,
2013-02-07 16:55:00,47.0,36.6,30.04,NW,321,2.0,5.0,67,0.00,,---,0.09,VWS V14.01,2013-02-08 00:55:00,
2013-02-07 17:00:00,46.7,36.7,30.04,NW,311,5.0,6.0,68,0.00,,---,0.09,VWS V14.01,2013-02-08 01:00:00,
2013-02-07 17:05:00,46.3,36.7,30.05,NW,310,1.0,7.0,69,0.00,,---,0.09,VWS V14.01,2013-02-08 01:05:00,
2013-02-07 17:10:00,46.0,37.1,30.05,West,277,5.0,7.0,71,0.00,,---,0.09,VWS V14.01,2013-02-08 01:10:00,
2013-02-07 17:15:00,45.6,37.1,30.06,West,276,3.0,7.0,72,0.00,,---,0.09,VWS V14.01,2013-02-08 01:15:00,
2013-02-07 17:20:00,45.4,37.6,30.06,WNW,295,1.0,7.0,74,0.00,,---,0.09,VWS V14.01,2013-02-08 01:20:00,
2013-02-07 17:25:00,45.2,37.4,30.06,WNW,296,1.0,7.0,74,0.00,,---,0.09,VWS V14.01,2013-02-08 01:25:00,
2013-02-07 17:30:00,45.1,37.7,30.06,WNW,299,1.0,1.0,75,0.00,,---,0.09,VWS V14.01,2013-02-08 01:30:00,
2013-02-07 17:35:00,45.0,37.9,30.06,WNW,299,0.0,3.0,76,0.00,,---,0.09,VWS V14.01,2013-02-08 01:35:00,
2013-02-07 17:40:00,44.7,37.9,30.06,WNW,299,0.0,3.0,77,0.00,,---,0.09,VWS V14.01,2013-02-08 01:40:00,
2013-02-07 17:46:00,44.5,38.1,30.06,WNW,299,0.0,3.0,78,0.00,,---,0.09,VWS V14.01,2013-02-08 01:46:00,
2013-02-07 17:51:00,44.3,37.6,30.06,WNW,299,0.0,3.0,77,0.00,,---,0.09,VWS V14.01,2013-02-08 01:51:00,
2013-02-07 17:56:00,44.1,37.7,30.06,WNW,299,0.0,3.0,78,0.00,,---,0.09,VWS V14.01,2013-02-08 01:56:00,
2013-02-07 18:01:00,43.9,38.1,30.06,WNW,299,0.0,0.0,80,0.00,,---,0.09,VWS V14.01,2013-02-08 02:01:00,
2013-02-07 18:06:00,43.7,38.0,30.06,WNW,299,0.0,0.0,80,0.00,,---,0.09,VWS V14.01,2013-02-08 02:06:00,
2013-02-07 18:11:00,43.5,37.8,30.07,WNW,299,0.0,0.0,80,0.00,,---,0.09,VWS V14.01,2013-02-08 02:11:00,
2013-02-07 18:16:00,43.3,37.6,30.07,WNW,299,0.0,0.0,80,0.00,,---,0.09,VWS V14.01,2013-02-08 02:16:00,
2013-02-07 18:21:00,43.1,37.7,30.07,WNW,299,0.0,0.0,81,0.00,,---,0.09,VWS V14.01,2013-02-08 02:21:00,
2013-02-07 18:26:00,43.1,37.7,30.07,WNW,299,0.0,0.0,81,0.00,,---,0.09,VWS V14.01,2013-02-08 02:26:00,
2013-02-07 18:31:00,43.1,38.0,30.07,WNW,299,0.0,0.0,82,0.00,,---,0.09,VWS V14.01,2013-02-08 02:31:00,
2013-02-07 18:36:00,43.0,37.9,30.08,WNW,299,0.0,0.0,82,0.00,,---,0.09,VWS V14.01,2013-02-08 02:36:00,
2013-02-07 18:41:00,42.8,37.7,30.08,WNW,299,0.0,0.0,82,0.00,,---,0.09,VWS V14.01,2013-02-08 02:41:00,
2013-02-07 18:46:00,42.7,37.6,30.08,WNW,299,0.0,0.0,82,0.00,,---,0.09,VWS V14.01,2013-02-08 02:46:00,
2013-02-07 18:51:00,42.6,38.1,30.08,WNW,299,0.0,0.0,84,0.00,,---,0.09,VWS V14.01,2013-02-08 02:51:00,
2013-02-07 18:56:00,42.6,38.1,30.08,WNW,299,0.0,0.0,84,0.00,,---,0.09,VWS V14.01,2013-02-08 02:56:00,
2013-02-07 19:02:00,42.5,38.0,30.09,WNW,299,0.0,0.0,84,0.00,,---,0.09,VWS V14.01,2013-02-08 03:02:00,
2013-02-07 19:07:00,42.4,37.9,30.09,WNW,299,0.0,0.0,84,0.00,,---,0.09,VWS V14.01,2013-02-08 03:07:00,
2013-02-07 19:12:00,42.3,38.1,30.09,WNW,299,0.0,0.0,85,0.00,,---,0.09,VWS V14.01,2013-02-08 03:12:00,
2013-02-07 19:17:00,42.1,37.9,30.09,WNW,299,0.0,0.0,85,0.00,,---,0.09,VWS V14.01,2013-02-08 03:17:00,
2013-02-07 19:22:00,42.1,38.2,30.09,WNW,299,0.0,0.0,86,0.00,,---,0.09,VWS V14.01,2013-02-08 03:22:00,
2013-02-07 19:27:00,42.0,38.1,30.09,WNW,299,0.0,0.0,86,0.00,,---,0.09,VWS V14.01,2013-02-08 03:27:00,
2013-02-07 19:32:00,41.9,38.0,30.09,WNW,299,0.0,0.0,86,0.00,,---,0.09,VWS V14.01,2013-02-08 03:32:00,
2013-02-07 19:37:00,41.6,37.7,30.09,WNW,299,0.0,1.0,86,0.00,,---,0.09,VWS V14.01,2013-02-08 03:37:00,
2013-02-07 19:43:00,41.6,38.0,30.10,WNW,299,0.0,1.0,87,0.00,,---,0.09,VWS V14.01,2013-02-08 03:43:00,
2013-02-07 19:48:00,41.5,37.9,30.10,WNW,299,0.0,1.0,87,0.00,,---,0.09,VWS V14.01,2013-02-08 03:48:00,
2013-02-07 19:53:00,41.6,38.3,30.10,WNW,299,0.0,1.0,88,0.00,,---,0.09,VWS V14.01,2013-02-08 03:53:00,
2013-02-07 19:58:00,41.5,37.9,30.10,WNW,299,0.0,3.0,87,0.00,,---,0.09,VWS V14.01,2013-02-08 03:58:00,
2013-02-07 20:03:00,41.5,38.2,30.10,WNW,299,0.0,0.0,88,0.00,,---,0.09,VWS V14.01,2013-02-08 04:03:00,
2013-02-07 20:08:00,41.5,38.2,30.11,WNW,299,0.0,0.0,88,0.00,,---,0.09,VWS V14.01,2013-02-08 04:08:00,
2013-02-07 20:13:00,41.5,38.5,30.11,WNW,299,0.0,0.0,89,0.00,,---,0.09,VWS V14.01,2013-02-08 04:13:00,
2013-02-07 20:18:00,41.6,38.6,30.11,WNW,299,0.0,0.0,89,0.00,,---,0.09,VWS V14.01,2013-02-08 04:18:00,
2013-02-07 20:23:00,41.4,38.1,30.11,WNW,299,0.0,0.0,88,0.00,,---,0.09,VWS V14.01,2013-02-08 04:23:00,
2013-02-07 20:28:00,41.3,38.3,30.11,WNW,299,0.0,0.0,89,0.00,,---,0.09,VWS V14.01,2013-02-08 04:28:00,
2013-02-07 20:33:00,41.3,38.3,30.11,WNW,299,0.0,0.0,89,0.00,,---,0.09,VWS V14.01,2013-02-08 04:33:00,
2013-02-07 20:38:00,41.3,38.3,30.11,WNW,299,0.0,0.0,89,0.00,,---,0.09,VWS V14.01,2013-02-08 04:38:00,
2013-02-07 20:43:00,41.3,38.6,30.12,WNW,299,0.0,0.0,90,0.00,,---,0.09,VWS V14.01,2013-02-08 04:43:00,
2013-02-07 20:48:00,41.3,38.3,30.12,WNW,299,0.0,0.0,89,0.00,,---,0.09,VWS V14.01,2013-02-08 04:48:00,
2013-02-07 20:53:00,41.1,38.1,30.12,WNW,299,0.0,0.0,89,0.00,,---,0.09,VWS V14.01,2013-02-08 04:53:00,
2013-02-07 20:58:00,40.9,37.9,30.12,WNW,299,0.0,0.0,89,0.00,,---,0.09,VWS V14.01,2013-02-08 04:58:00,
2013-02-07 21:00:00,40.8,38.1,30.12,WNW,299,0.0,0.0,90,0.00,,---,0.09,VWS V14.01,2013-02-08 05:00:00,
2013-02-07 21:01:00,40.8,37.8,30.12,WNW,299,0.0,0.0,89,0.00,,---,0.09,VWS V14.01,2013-02-08 05:01:00,
2013-02-07 21:06:00,40.6,37.9,30.12,WNW,299,0.0,0.0,90,0.00,,---,0.09,VWS V14.01,2013-02-08 05:06:00,
2013-02-07 21:11:00,40.5,37.8,30.12,WNW,299,0.0,0.0,90,0.00,,---,0.09,VWS V14.01,2013-02-08 05:11:00,
2013-02-07 21:16:00,40.5,37.8,30.12,WNW,299,0.0,0.0,90,0.00,,---,0.09,VWS V14.01,2013-02-08 05:16:00,
2013-02-07 21:21:00,40.5,37.8,30.12,WNW,299,0.0,2.0,90,0.00,,---,0.09,VWS V14.01,2013-02-08 05:21:00,
2013-02-07 21:26:00,40.6,38.2,30.12,WNW,299,0.0,2.0,91,0.00,,---,0.09,VWS V14.01,2013-02-08 05:26:00,
2013-02-07 21:31:00,40.7,38.3,30.13,WNW,299,0.0,0.0,91,0.00,,---,0.09,VWS V14.01,2013-02-08 05:31:00,
2013-02-07 21:36:00,40.6,37.9,30.13,WNW,299,0.0,0.0,90,0.00,,---,0.09,VWS V14.01,2013-02-08 05:36:00,
2013-02-07 21:41:00,40.6,38.2,30.13,WNW,299,0.0,0.0,91,0.00,,---,0.09,VWS V14.01,2013-02-08 05:41:00,
2013-02-07 21:46:00,40.5,37.8,30.13,WNW,299,0.0,2.0,90,0.00,,---,0.09,VWS V14.01,2013-02-08 05:46:00,
2013-02-07 21:51:00,40.5,38.1,30.13,WNW,299,0.0,2.0,91,0.00,,---,0.09,VWS V14.01,2013-02-08 05:51:00,
2013-02-07 21:56:00,40.5,37.8,30.14,WNW,299,0.0,2.0,90,0.00,,---,0.09,VWS V14.01,2013-02-08 05:56:00,
2013-02-07 22:02:00,40.3,37.6,30.14,WNW,299,0.0,0.0,90,0.00,,---,0.09,VWS V14.01,2013-02-08 06:02:00,
2013-02-07 22:07:00,40.2,37.8,30.14,WNW,299,0.0,0.0,91,0.00,,---,0.09,VWS V14.01,2013-02-08 06:07:00,
2013-02-07 22:12:00,40.2,37.8,30.14,WNW,299,0.0,0.0,91,0.00,,---,0.09,VWS V14.01,2013-02-08 06:12:00,
2013-02-07 22:17:00,40.2,38.1,30.14,WNW,299,0.0,0.0,92,0.00,,---,0.09,VWS V14.01,2013-02-08 06:17:00,
2013-02-07 22:22:00,40.2,37.8,30.15,WNW,299,0.0,0.0,91,0.00,,---,0.09,VWS V14.01,2013-02-08 06:22:00,
2013-02-07 22:27:00,40.6,38.7,30.15,WNW,299,0.0,0.0,93,0.00,,---,0.09,VWS V14.01,2013-02-08 06:27:00,
2013-02-07 22:32:00,40.4,38.3,30.15,WNW,299,0.0,2.0,92,0.00,,---,0.09,VWS V14.01,2013-02-08 06:32:00,
2013-02-07 22:37:00,40.1,38.0,30.15,WNW,299,1.0,2.0,92,0.00,,---,0.09,VWS V14.01,2013-02-08 06:37:00,
2013-02-07 22:42:00,40.1,38.0,30.15,WNW,299,0.0,2.0,92,0.00,,---,0.09,VWS V14.01,2013-02-08 06:42:00,
2013-02-07 22:47:00,40.4,38.5,30.15,WNW,299,0.0,2.0,93,0.00,,---,0.09,VWS V14.01,2013-02-08 06:47:00,
2013-02-07 22:52:00,40.4,38.3,30.15,WNW,299,0.0,2.0,92,0.00,,---,0.09,VWS V14.01,2013-02-08 06:52:00,
2013-02-07 22:57:00,40.2,38.1,30.15,WNW,299,0.0,2.0,92,0.00,,---,0.09,VWS V14.01,2013-02-08 06:57:00,
2013-02-07 23:02:00,40.1,38.0,30.15,WNW,299,0.0,0.0,92,0.00,,---,0.09,VWS V14.01,2013-02-08 07:02:00,
2013-02-07 23:07:00,39.8,37.7,30.16,WNW,299,0.0,1.0,92,0.00,,---,0.09,VWS V14.01,2013-02-08 07:07:00,
2013-02-07 23:12:00,39.8,38.0,30.16,WNW,299,0.0,1.0,93,0.00,,---,0.09,VWS V14.01,2013-02-08 07:12:00,
2013-02-07 23:17:00,39.8,37.7,30.16,WNW,299,0.0,1.0,92,0.00,,---,0.09,VWS V14.01,2013-02-08 07:17:00,
2013-02-07 23:22:00,39.7,37.6,30.16,WNW,299,0.0,1.0,92,0.00,,---,0.09,VWS V14.01,2013-02-08 07:22:00,
2013-02-07 23:27:00,40.0,38.1,30.16,WNW,299,0.0,2.0,93,0.00,,---,0.09,VWS V14.01,2013-02-08 07:27:00,
2013-02-07 23:32:00,40.3,38.4,30.17,WNW,299,0.0,0.0,93,0.00,,---,0.09,VWS V14.01,2013-02-08 07:32:00,
2013-02-07 23:37:00,40.1,38.2,30.16,WNW,299,0.0,0.0,93,0.00,,---,0.09,VWS V14.01,2013-02-08 07:37:00,
2013-02-07 23:42:00,39.9,38.0,30.17,WNW,299,0.0,0.0,93,0.00,,---,0.09,VWS V14.01,2013-02-08 07:42:00,
2013-02-07 23:47:00,39.8,38.0,30.17,WNW,299,0.0,0.0,93,0.00,,---,0.09,VWS V14.01,2013-02-08 07:47:00,
2013-02-07 23:53:00,39.5,37.7,30.17,WNW,299,0.0,0.0,93,0.00,,---,0.09,VWS V14.01,2013-02-08 07:53:00,
2013-02-07 23:58:00,39.4,37.5,30.17,WNW,299,0.0,0.0,93,0.00,,---,0.09,VWS V14.01,2013-02-08 07:58:00,